Time;durP1;ratioP1;P1;durP2;ratioP2;P2;SDS_P1;SDS_P2;PMS_P1;PMS_P2;Temp;Humidity;BMP_temperature;BMP_pressure;BME280_temperature;BME280_humidity;BME280_pressure;Samples;Min_cycle;Max_cycle;Signal;HPM_P1;HPM_P2
2022/03/05 00:01:10;;;;;;;18.23;10.25;;;;;;;0.87;61.59;101851.47;4904500;29;20377;-89
2022/03/05 00:03:36;;;;;;;18.33;10.32;;;;;;;0.84;63.61;101854.41;4919833;29;20059;-89
2022/03/05 00:06:01;;;;;;;19.05;10.88;;;;;;;0.80;64.37;101858.28;4904673;29;20032;-89
2022/03/05 00:08:30;;;;;;;17.00;9.70;;;;;;;0.74;63.81;101855.25;4937468;29;20483;-89
2022/03/05 00:10:56;;;;;;;18.90;10.50;;;;;;;0.70;63.49;101852.84;4937308;29;20031;-90
2022/03/05 00:13:21;;;;;;;18.00;10.27;;;;;;;0.69;64.35;101858.31;4920184;29;20461;-90
2022/03/05 00:15:47;;;;;;;18.60;10.43;;;;;;;0.63;64.82;101864.16;4905451;29;20032;-90
2022/03/05 00:18:14;;;;;;;19.98;11.07;;;;;;;0.61;65.41;101871.47;4921549;29;20031;-89
2022/03/05 00:20:40;;;;;;;18.25;10.13;;;;;;;0.54;66.78;101859.59;4920441;29;20135;-89
2022/03/05 00:23:06;;;;;;;20.23;11.52;;;;;;;0.50;65.74;101870.53;4905357;29;20547;-89
2022/03/05 00:25:36;;;;;;;20.30;11.98;;;;;;;0.51;66.18;101871.34;4920060;29;20408;-89
2022/03/05 00:28:01;;;;;;;20.58;11.70;;;;;;;0.43;66.64;101865.78;4919787;29;20160;-90
2022/03/05 00:30:27;;;;;;;18.70;10.73;;;;;;;0.41;63.81;101868.56;4920111;29;20114;-90
2022/03/05 00:32:52;;;;;;;21.33;11.88;;;;;;;0.39;63.31;101862.53;4937474;29;20115;-90
2022/03/05 00:35:18;;;;;;;21.48;12.25;;;;;;;0.36;67.12;101865.44;4920505;29;20035;-90
2022/03/05 00:37:44;;;;;;;22.05;12.68;;;;;;;0.37;66.00;101874.28;4920324;29;20031;-89
2022/03/05 00:40:10;;;;;;;21.02;11.95;;;;;;;0.33;67.02;101863.84;4920107;29;20036;-90
2022/03/05 00:42:38;;;;;;;22.73;12.55;;;;;;;0.31;66.14;101857.81;4920354;29;20032;-90
2022/03/05 00:45:07;;;;;;;21.95;12.23;;;;;;;0.30;66.29;101864.09;4920190;29;20067;-90
2022/03/05 00:47:37;;;;;;;20.98;12.23;;;;;;;0.32;63.54;101858.63;4936642;29;20499;-90
2022/03/05 00:50:07;;;;;;;20.00;11.40;;;;;;;0.27;64.41;101861.69;4936542;29;20083;-89
2022/03/05 00:52:33;;;;;;;21.70;12.63;;;;;;;0.23;67.03;101854.88;4904362;29;20039;-89
2022/03/05 00:54:59;;;;;;;20.80;12.30;;;;;;;0.18;67.68;101867.78;4919888;29;20101;-89
2022/03/05 00:57:27;;;;;;;19.88;11.40;;;;;;;0.13;65.83;101861.94;4919774;29;20044;-90
2022/03/05 00:59:52;;;;;;;19.88;11.02;;;;;;;0.12;66.78;101862.94;4920562;29;20035;-90
2022/03/05 01:02:18;;;;;;;21.95;12.55;;;;;;;0.06;66.42;101863.38;4920779;29;20035;-90
2022/03/05 01:04:45;;;;;;;21.02;12.75;;;;;;;0.03;69.18;101869.84;4923424;29;20028;-90
2022/03/05 01:07:11;;;;;;;23.80;13.82;;;;;;;-0.02;68.96;101864.84;4923499;29;20102;-89
2022/03/05 01:09:36;;;;;;;23.52;14.40;;;;;;;-0.02;69.21;101872.00;4923708;29;20130;-90
2022/03/05 01:12:02;;;;;;;27.35;15.52;;;;;;;-0.06;65.74;101859.88;4923451;29;20035;-89
2022/03/05 01:14:28;;;;;;;23.13;14.10;;;;;;;-0.11;68.32;101857.56;4923851;29;20043;-89
2022/03/05 01:16:53;;;;;;;25.35;13.73;;;;;;;-0.10;67.18;101863.78;4923435;29;20023;-90
2022/03/05 01:19:19;;;;;;;21.88;13.20;;;;;;;-0.13;71.01;101866.66;4923637;29;20035;-89
2022/03/05 01:21:44;;;;;;;21.95;13.15;;;;;;;-0.16;65.71;101859.75;4907079;29;20051;-89
2022/03/05 01:24:12;;;;;;;22.27;13.38;;;;;;;-0.20;66.90;101856.47;4923631;29;20499;-89
2022/03/05 01:26:38;;;;;;;26.75;14.63;;;;;;;-0.19;68.73;101857.34;4923468;29;20035;-90
2022/03/05 01:29:03;;;;;;;23.88;13.95;;;;;;;-0.25;69.60;101861.31;4922722;29;20038;-89
2022/03/05 01:31:28;;;;;;;23.45;13.20;;;;;;;-0.27;67.22;101859.75;4939857;29;20111;-89
2022/03/05 01:33:54;;;;;;;21.48;12.23;;;;;;;-0.33;68.28;101863.72;4922575;29;20035;-89
2022/03/05 01:36:19;;;;;;;22.00;12.73;;;;;;;-0.30;67.89;101860.81;4923164;29;20204;-89
2022/03/05 01:38:45;;;;;;;21.83;12.15;;;;;;;-0.38;69.35;101852.59;4922723;29;20079;-89
2022/03/05 01:41:10;;;;;;;23.45;12.48;;;;;;;-0.42;69.02;101862.63;4923059;29;20148;-90
2022/03/05 01:43:39;;;;;;;22.77;12.98;;;;;;;-0.45;69.27;101852.19;4940106;29;20070;-89
2022/03/05 01:46:04;;;;;;;20.98;11.85;;;;;;;-0.48;70.35;101862.25;4902473;29;20059;-89
2022/03/05 01:48:30;;;;;;;20.25;11.90;;;;;;;-0.54;71.04;101861.75;4891934;29;20063;-90
2022/03/05 01:50:56;;;;;;;20.92;11.70;;;;;;;-0.60;68.98;101867.56;4907368;29;20043;-90
2022/03/05 01:53:21;;;;;;;22.58;13.20;;;;;;;-0.61;68.50;101860.53;4922807;29;20114;-90
2022/03/05 01:55:47;;;;;;;24.83;14.30;;;;;;;-0.57;69.69;101861.16;4923007;29;20100;-90
2022/03/05 01:58:15;;;;;;;25.80;14.48;;;;;;;-0.62;69.29;101855.31;4922893;29;20090;-90
2022/03/05 02:00:41;;;;;;;26.30;15.32;;;;;;;-0.64;70.47;101858.09;4922943;29;20063;-90
2022/03/05 02:03:06;;;;;;;27.48;15.88;;;;;;;-0.62;69.25;101857.97;4907594;29;20055;-89
2022/03/05 02:05:34;;;;;;;24.05;14.32;;;;;;;-0.62;69.19;101855.31;4923041;29;20028;-89
2022/03/05 02:07:59;;;;;;;23.27;13.63;;;;;;;-0.66;69.12;101853.88;4939665;29;20035;-89
2022/03/05 02:10:27;;;;;;;24.30;14.13;;;;;;;-0.67;69.68;101862.81;4892179;29;20040;-90
2022/03/05 02:12:53;;;;;;;22.27;12.60;;;;;;;-0.73;69.97;101861.47;4907565;29;20043;-90
2022/03/05 02:15:18;;;;;;;21.08;12.35;;;;;;;-0.80;70.79;101857.56;4922839;29;20028;-90
2022/03/05 02:17:44;;;;;;;22.23;12.57;;;;;;;-0.86;70.65;101856.22;4906854;29;20102;-90
2022/03/05 02:20:10;;;;;;;21.95;12.98;;;;;;;-0.87;70.71;101859.84;4922018;29;20028;-89
2022/03/05 02:22:37;;;;;;;25.77;14.45;;;;;;;-0.90;68.95;101852.94;4921897;29;20405;-90
2022/03/05 02:25:04;;;;;;;24.08;14.45;;;;;;;-0.91;70.44;101855.72;4906633;29;20046;-89
2022/03/05 02:27:34;;;;;;;29.90;17.50;;;;;;;-0.88;70.93;101853.66;4922000;29;20059;-89
2022/03/05 02:29:59;;;;;;;26.60;16.63;;;;;;;-0.89;71.05;101844.00;4907674;29;20078;-90
2022/03/05 02:32:28;;;;;;;29.85;16.70;;;;;;;-0.91;71.39;101850.38;4921933;29;20472;-90
2022/03/05 02:34:54;;;;;;;25.20;14.75;;;;;;;-0.97;72.91;101837.53;4921710;29;20047;-90
2022/03/05 02:37:19;;;;;;;24.95;15.10;;;;;;;-0.98;71.77;101843.81;4922374;29;20066;-90
2022/03/05 02:39:48;;;;;;;28.15;16.33;;;;;;;-1.01;72.29;101842.22;4906253;29;20047;-90
2022/03/05 02:42:15;;;;;;;28.02;15.90;;;;;;;-1.03;70.35;101836.19;4922527;29;20035;-90
2022/03/05 02:44:41;;;;;;;28.17;16.95;;;;;;;-1.04;71.10;101837.13;4922528;29;20046;-90
2022/03/05 02:47:08;;;;;;;27.60;16.35;;;;;;;-1.08;72.73;101854.31;4923389;29;20086;-90
2022/03/05 02:49:35;;;;;;;24.67;15.13;;;;;;;-1.14;73.09;101849.44;4923496;29;20089;-90
2022/03/05 02:52:00;;;;;;;26.35;15.27;;;;;;;-1.18;71.55;101853.28;4922240;29;20040;-90
2022/03/05 02:54:25;;;;;;;24.63;14.60;;;;;;;-1.19;71.51;101857.78;4923038;29;20031;-90
2022/03/05 02:56:51;;;;;;;26.63;15.32;;;;;;;-1.21;72.20;101861.50;4922058;29;20051;-91
2022/03/05 02:59:17;;;;;;;27.48;15.63;;;;;;;-1.26;72.70;101851.19;4922164;29;20481;-90
2022/03/05 03:01:43;;;;;;;25.85;14.77;;;;;;;-1.31;72.15;101854.22;4921716;29;20028;-90
2022/03/05 03:04:08;;;;;;;24.38;13.80;;;;;;;-1.31;72.60;101862.19;4921903;29;20031;-90
2022/03/05 03:06:34;;;;;;;26.20;15.02;;;;;;;-1.37;72.49;101854.66;4921969;29;20099;-90
2022/03/05 03:08:59;;;;;;;25.58;16.00;;;;;;;-1.35;71.61;101855.38;4890894;29;20533;-90
2022/03/05 03:11:26;;;;;;;28.63;16.42;;;;;;;-1.35;71.79;101855.38;4921594;29;20114;-90
2022/03/05 03:13:56;;;;;;;25.50;15.93;;;;;;;-1.39;72.48;101850.41;4905722;29;20506;-90
2022/03/05 03:16:22;;;;;;;27.15;16.23;;;;;;;-1.39;72.84;101848.59;4891709;29;20384;-90
2022/03/05 03:18:47;;;;;;;27.13;16.00;;;;;;;-1.45;73.10;101851.69;4905743;29;20083;-90
2022/03/05 03:21:15;;;;;;;24.20;15.13;;;;;;;-1.49;73.71;101842.22;4938340;29;20059;-91
2022/03/05 03:23:41;;;;;;;23.42;14.88;;;;;;;-1.51;73.90;101849.50;4921812;29;20067;-92
2022/03/05 03:26:06;;;;;;;24.85;14.93;;;;;;;-1.48;73.25;101849.25;4921170;29;20066;-91
2022/03/05 03:28:35;;;;;;;25.75;15.13;;;;;;;-1.56;73.48;101847.16;4906132;29;20048;-91
2022/03/05 03:31:02;;;;;;;24.55;14.50;;;;;;;-1.57;73.24;101841.97;4921531;29;20400;-91
2022/03/05 03:33:28;;;;;;;26.17;15.20;;;;;;;-1.52;72.06;101845.13;4921512;29;20043;-91
2022/03/05 03:35:54;;;;;;;27.33;15.88;;;;;;;-1.54;72.59;101839.91;4921769;29;20050;-91
2022/03/05 03:38:22;;;;;;;27.35;16.90;;;;;;;-1.54;72.58;101836.41;4922341;29;20130;-92
2022/03/05 03:40:47;;;;;;;27.27;16.42;;;;;;;-1.53;72.98;101838.13;4905706;29;20035;-92
2022/03/05 03:43:15;;;;;;;26.27;16.17;;;;;;;-1.53;72.05;101838.13;4906396;29;20043;-92
2022/03/05 03:45:41;;;;;;;27.88;15.68;;;;;;;-1.56;71.64;101830.34;4921671;29;20464;-92
2022/03/05 03:48:06;;;;;;;27.90;16.80;;;;;;;-1.55;72.17;101846.22;4921415;29;20094;-92
2022/03/05 03:50:32;;;;;;;25.35;15.50;;;;;;;-1.59;73.30;101848.22;4938030;29;20032;-91
2022/03/05 03:52:58;;;;;;;27.00;16.30;;;;;;;-1.63;72.92;101838.75;4921953;29;20042;-91
2022/03/05 03:55:24;;;;;;;26.75;16.15;;;;;;;-1.62;72.47;101859.09;4921156;29;20468;-92
2022/03/05 03:57:50;;;;;;;24.95;16.10;;;;;;;-1.65;73.21;101853.16;4905613;29;20094;-92
2022/03/05 04:00:17;;;;;;;23.08;14.32;;;;;;;-1.74;74.34;101851.16;4921255;29;20039;-91
2022/03/05 04:02:46;;;;;;;25.02;14.65;;;;;;;-1.79;72.78;101847.03;4921257;29;20122;-92
2022/03/05 04:05:15;;;;;;;24.17;14.38;;;;;;;-1.79;73.57;101840.84;4937913;29;20071;-91
2022/03/05 04:10:28;;;;;;;24.25;14.38;;;;;;;-1.84;74.64;101846.50;4938358;29;20038;-91
2022/03/05 04:12:53;;;;;;;24.50;14.50;;;;;;;-1.87;74.21;101846.72;4905733;29;20032;-91
2022/03/05 04:15:22;;;;;;;24.88;14.88;;;;;;;-1.86;73.71;101842.25;4921455;29;20377;-91
2022/03/05 04:17:50;;;;;;;24.63;14.60;;;;;;;-1.85;72.20;101846.59;4920946;29;20043;-92
2022/03/05 04:20:18;;;;;;;23.40;14.45;;;;;;;-1.89;73.94;101848.66;4905723;29;20032;-91
2022/03/05 04:22:47;;;;;;;25.25;14.68;;;;;;;-1.96;73.28;101847.38;4920538;29;20066;-91
2022/03/05 04:25:12;;;;;;;25.65;15.05;;;;;;;-1.97;73.67;101853.66;4904816;29;20051;-91
2022/03/05 04:27:40;;;;;;;26.00;14.88;;;;;;;-2.00;72.29;101848.56;4920264;29;20086;-91
2022/03/05 04:30:10;;;;;;;27.30;16.00;;;;;;;-2.04;74.74;101844.41;4905174;29;20059;-91
2022/03/05 04:32:37;;;;;;;25.38;14.80;;;;;;;-2.05;74.51;101854.19;4906371;29;20062;-91
2022/03/05 04:35:03;;;;;;;25.50;14.43;;;;;;;-2.08;75.66;101858.88;4920475;29;20039;-91
2022/03/05 04:37:29;;;;;;;24.85;14.70;;;;;;;-2.14;74.91;101861.00;4937347;29;20064;-92
2022/03/05 04:39:57;;;;;;;26.73;15.50;;;;;;;-2.09;75.26;101860.69;4920636;29;20051;-92
2022/03/05 04:42:23;;;;;;;26.92;15.70;;;;;;;-2.10;75.91;101866.13;4937643;29;20101;-92
2022/03/05 04:44:58;;;;;;;26.17;15.50;;;;;;;-2.16;75.12;101873.56;4905829;29;20039;-92
2022/03/05 04:47:27;;;;;;;22.73;12.73;;;;;;;-2.20;75.21;101866.78;4920905;29;20461;-92
2022/03/05 04:49:52;;;;;;;26.30;14.82;;;;;;;-2.16;73.16;101864.72;4920537;29;20524;-92
2022/03/05 04:52:18;;;;;;;26.08;15.00;;;;;;;-2.13;74.33;101872.50;4921057;29;20178;-91
2022/03/05 04:54:46;;;;;;;28.35;16.42;;;;;;;-2.18;73.47;101862.19;4920241;29;20070;-92
2022/03/05 04:57:14;;;;;;;27.55;16.55;;;;;;;-2.19;74.69;101865.78;4920689;29;20030;-92
2022/03/05 04:59:40;;;;;;;25.88;15.27;;;;;;;-2.21;75.22;101877.50;4906031;29;20372;-92
2022/03/05 05:02:05;;;;;;;27.80;16.10;;;;;;;-2.26;76.33;101871.66;4904617;29;20036;-91
2022/03/05 05:04:33;;;;;;;26.70;15.27;;;;;;;-2.26;75.31;101871.66;4920109;29;20377;-91
2022/03/05 05:06:59;;;;;;;28.98;16.40;;;;;;;-2.28;74.31;101862.94;4921376;29;20126;-91
2022/03/05 05:09:27;;;;;;;29.45;16.60;;;;;;;-2.32;74.98;101860.50;4919885;29;20483;-91
2022/03/05 05:11:58;;;;;;;25.58;15.15;;;;;;;-2.38;76.15;101862.72;4936943;29;20024;-92
2022/03/05 05:14:27;;;;;;;26.13;15.40;;;;;;;-2.39;74.78;101866.31;4920523;29;20036;-92
2022/03/05 05:16:53;;;;;;;27.73;15.68;;;;;;;-2.41;74.71;101858.44;4920437;29;20220;-91
2022/03/05 05:19:24;;;;;;;30.45;17.63;;;;;;;-2.38;75.84;101863.56;4920571;29;20063;-91
2022/03/05 05:21:50;;;;;;;32.10;18.10;;;;;;;-2.35;74.06;101863.38;4919967;29;20048;-91
2022/03/05 05:24:15;;;;;;;30.40;18.50;;;;;;;-2.36;75.00;101859.00;4920144;29;20498;-91
2022/03/05 05:26:41;;;;;;;32.15;19.00;;;;;;;-2.41;75.13;101861.09;4919848;29;20027;-90
2022/03/05 05:29:06;;;;;;;30.55;17.98;;;;;;;-2.44;76.17;101877.28;4919738;29;20400;-90
2022/03/05 05:31:35;;;;;;;28.98;17.23;;;;;;;-2.45;76.69;101882.69;4903826;29;20527;-91
2022/03/05 05:34:03;;;;;;;27.50;16.23;;;;;;;-2.44;75.68;101887.06;4919917;29;20055;-90
2022/03/05 05:36:29;;;;;;;27.25;16.08;;;;;;;-2.47;76.29;101896.09;4919919;29;20536;-90
2022/03/05 05:38:55;;;;;;;31.30;18.65;;;;;;;-2.50;76.39;101886.50;4904344;29;20040;-90
2022/03/05 05:41:21;;;;;;;29.48;17.67;;;;;;;-2.55;76.72;101888.66;4919270;29;20511;-90
2022/03/05 05:43:46;;;;;;;28.73;16.48;;;;;;;-2.58;77.77;101890.66;4919674;29;20083;-90
2022/03/05 05:46:12;;;;;;;31.15;17.83;;;;;;;-2.53;75.95;101893.84;4919453;29;20024;-90
2022/03/05 05:48:40;;;;;;;29.65;17.52;;;;;;;-2.54;75.78;101900.13;4920819;29;20107;-90
2022/03/05 05:51:06;;;;;;;29.15;17.35;;;;;;;-2.56;76.74;101899.38;4922988;29;20063;-89
2022/03/05 05:53:31;;;;;;;27.48;15.88;;;;;;;-2.56;75.40;101904.69;4923234;29;20036;-90
2022/03/05 05:55:57;;;;;;;26.45;15.63;;;;;;;-2.57;78.03;101905.63;4908025;29;20052;-89
2022/03/05 05:58:22;;;;;;;29.70;17.02;;;;;;;-2.65;79.07;101901.69;4922832;29;20046;-89
2022/03/05 06:00:49;;;;;;;31.23;17.77;;;;;;;-2.59;77.03;101910.22;4923097;29;20032;-90
2022/03/05 06:03:15;;;;;;;33.15;18.73;;;;;;;-2.61;77.93;101909.44;4939782;29;20036;-89
2022/03/05 06:05:40;;;;;;;32.60;19.05;;;;;;;-2.61;77.10;101899.69;4922342;29;20063;-89
2022/03/05 06:08:06;;;;;;;29.70;18.25;;;;;;;-2.65;78.51;101896.38;4922742;29;20461;-89
2022/03/05 06:10:32;;;;;;;30.45;17.67;;;;;;;-2.62;77.30;101900.63;4922560;29;20079;-89
2022/03/05 06:12:57;;;;;;;32.33;18.23;;;;;;;-2.64;76.91;101899.91;4939379;29;20480;-89
2022/03/05 06:15:23;;;;;;;29.00;16.95;;;;;;;-2.63;75.45;101898.09;4906976;29;20028;-89
2022/03/05 06:17:48;;;;;;;33.20;18.45;;;;;;;-2.59;76.81;101908.41;4922178;29;20027;-89
2022/03/05 06:20:14;;;;;;;29.95;17.05;;;;;;;-2.63;77.48;101901.59;4922354;29;20126;-89
2022/03/05 06:22:42;;;;;;;29.27;17.10;;;;;;;-2.66;77.25;101904.44;4921763;29;20138;-89
2022/03/05 06:25:08;;;;;;;29.95;17.58;;;;;;;-2.61;78.02;101910.31;4922643;29;20036;-90
2022/03/05 06:27:38;;;;;;;31.73;18.42;;;;;;;-2.60;76.35;101897.88;4905863;29;20187;-90
2022/03/05 06:30:05;;;;;;;30.92;17.25;;;;;;;-2.62;77.27;101895.31;4922321;29;20036;-89
2022/03/05 06:32:33;;;;;;;32.58;18.40;;;;;;;-2.61;76.80;101902.34;4922483;29;20142;-87
2022/03/05 06:34:59;;;;;;;32.47;18.70;;;;;;;-2.57;77.79;101910.97;4905430;29;20036;-86
2022/03/05 06:37:24;;;;;;;33.10;19.35;;;;;;;-2.58;77.52;101906.59;4921476;29;20034;-86
2022/03/05 06:39:50;;;;;;;28.45;16.30;;;;;;;-2.60;78.82;101909.34;4921687;29;20058;-86
2022/03/05 06:42:16;;;;;;;29.65;17.55;;;;;;;-2.59;77.91;101912.88;4921619;29;20055;-92
2022/03/05 06:44:42;;;;;;;29.02;16.38;;;;;;;-2.60;78.31;101917.31;4922744;29;20507;-93
2022/03/05 06:47:07;;;;;;;29.55;17.20;;;;;;;-2.59;77.60;101915.53;4922977;29;20087;-94
2022/03/05 06:49:33;;;;;;;28.90;16.40;;;;;;;-2.55;78.52;101917.88;4922668;29;20032;-93
2022/03/05 06:51:59;;;;;;;28.00;15.80;;;;;;;-2.52;77.35;101922.97;4907441;29;20043;-94
2022/03/05 06:54:27;;;;;;;27.33;16.00;;;;;;;-2.46;76.74;101921.72;4923171;29;20042;-96
2022/03/05 06:56:56;;;;;;;27.83;15.55;;;;;;;-2.45;78.20;101909.28;4923058;29;20043;-92
2022/03/05 06:59:24;;;;;;;27.98;15.98;;;;;;;-2.39;77.39;101916.81;4924367;29;20032;-87
2022/03/05 07:01:50;;;;;;;30.33;15.82;;;;;;;-2.33;78.49;101916.44;4905747;29;20039;-89
2022/03/05 07:04:18;;;;;;;29.55;16.63;;;;;;;-2.26;76.15;101924.81;4921406;29;20032;-88
2022/03/05 07:06:43;;;;;;;33.38;17.70;;;;;;;-2.23;77.96;101925.47;4920973;29;20118;-89
2022/03/05 07:09:08;;;;;;;31.50;17.60;;;;;;;-2.18;76.79;101928.66;4921995;29;20433;-89
2022/03/05 07:11:34;;;;;;;30.85;17.40;;;;;;;-2.12;77.10;101935.38;4920868;29;20055;-88
2022/03/05 07:13:59;;;;;;;32.35;17.08;;;;;;;-2.08;75.26;101926.22;4937901;29;20035;-88
2022/03/05 07:16:25;;;;;;;34.25;18.27;;;;;;;-1.99;77.54;101933.56;4921092;29;20070;-87
2022/03/05 07:18:51;;;;;;;32.35;18.35;;;;;;;-1.96;77.42;101930.69;4905537;29;20039;-87
2022/03/05 07:21:16;;;;;;;29.38;17.05;;;;;;;-1.90;77.59;101945.38;4920691;29;20039;-87
2022/03/05 07:23:54;;;;;;;29.20;16.05;;;;;;;-1.85;77.18;101943.22;5103834;27;1476895;-86
2022/03/05 07:26:19;;;;;;;32.05;17.02;;;;;;;-1.80;77.08;101940.22;5130798;28;20040;-86
2022/03/05 07:28:45;;;;;;;27.33;15.70;;;;;;;-1.77;76.91;101948.03;5096519;28;20429;-86
2022/03/05 07:31:11;;;;;;;29.65;16.77;;;;;;;-1.74;77.66;101947.81;5130656;28;20024;-86
2022/03/05 07:33:36;;;;;;;27.95;14.93;;;;;;;-1.69;77.10;101948.31;5131863;27;20034;-86
2022/03/05 07:36:05;;;;;;;28.90;15.90;;;;;;;-1.62;75.30;101941.59;5129937;28;20027;-87
2022/03/05 07:38:32;;;;;;;33.15;19.05;;;;;;;-1.56;77.52;101943.00;5130313;28;20026;-87
2022/03/05 07:40:58;;;;;;;30.02;16.27;;;;;;;-1.49;77.27;101938.06;5130325;28;20083;-86
2022/03/05 07:43:23;;;;;;;28.45;16.13;;;;;;;-1.42;75.78;101949.97;5130142;28;20030;-86
2022/03/05 07:45:49;;;;;;;31.85;16.42;;;;;;;-1.39;76.72;101936.44;5113147;28;20031;-86
2022/03/05 07:48:15;;;;;;;30.45;16.52;;;;;;;-1.33;76.07;101937.81;5130294;28;20031;-86
2022/03/05 07:50:41;;;;;;;30.75;16.23;;;;;;;-1.27;75.53;101932.03;5113196;28;20035;-86
2022/03/05 07:53:07;;;;;;;32.90;16.98;;;;;;;-1.18;76.02;101930.53;5130191;28;20180;-86
2022/03/05 07:55:32;;;;;;;29.73;15.75;;;;;;;-1.11;74.00;101937.97;5095936;28;20126;-86
2022/03/05 07:57:58;;;;;;;33.55;18.05;;;;;;;-1.05;76.20;101936.66;5130094;28;20035;-86
2022/03/05 08:00:23;;;;;;;34.42;17.67;;;;;;;-0.96;74.33;101945.78;5130404;28;20039;-86
2022/03/05 08:02:50;;;;;;;33.85;18.10;;;;;;;-0.92;74.96;101947.25;5130049;28;20020;-86
2022/03/05 08:05:16;;;;;;;36.20;19.13;;;;;;;-0.83;75.63;101959.91;5129218;28;20028;-87
2022/03/05 08:07:42;;;;;;;34.75;18.23;;;;;;;-0.77;75.58;101956.81;5131234;27;20031;-85
2022/03/05 08:10:08;;;;;;;33.90;18.70;;;;;;;-0.71;76.12;101966.13;5131411;27;20047;-85
2022/03/05 08:12:41;;;;;;;35.60;18.83;;;;;;;-0.63;76.22;101963.75;5130571;27;20049;-87
2022/03/05 08:15:06;;;;;;;;;;;;;;;-0.56;74.08;101969.47;5131839;27;20027;-86
2022/03/05 08:17:32;;;;;;;38.67;20.42;;;;;;;-0.51;75.85;101966.47;5129574;28;19934;-86
2022/03/05 08:20:00;;;;;;;35.92;18.33;;;;;;;-0.45;74.96;101969.53;5095561;28;20084;-87
2022/03/05 08:22:26;;;;;;;35.15;17.85;;;;;;;-0.37;74.48;101972.47;5129227;28;20051;-86
2022/03/05 08:24:51;;;;;;;33.47;17.70;;;;;;;-0.31;74.90;101975.63;5095683;28;20482;-87
2022/03/05 08:27:17;;;;;;;34.63;17.10;;;;;;;-0.28;75.07;101970.94;5130438;27;20360;-86
2022/03/05 08:29:43;;;;;;;33.80;18.48;;;;;;;-0.21;73.69;101971.28;5129485;28;20066;-86
2022/03/05 08:32:09;;;;;;;34.60;18.13;;;;;;;-0.12;73.40;101967.91;5129453;28;20092;-86
2022/03/05 08:34:34;;;;;;;32.92;17.10;;;;;;;-0.05;74.21;101970.97;5119189;28;20039;-87
2022/03/05 08:37:00;;;;;;;33.85;17.40;;;;;;;0.03;74.92;101973.03;5098109;28;20065;-90
2022/03/05 08:39:28;;;;;;;34.25;17.25;;;;;;;0.08;74.53;101977.06;5115530;28;20027;-87
2022/03/05 08:41:57;;;;;;;33.85;17.23;;;;;;;0.17;74.64;101971.00;5115255;28;20027;-87
2022/03/05 08:44:23;;;;;;;30.55;15.57;;;;;;;0.23;73.98;101972.34;5115215;28;20126;-86
2022/03/05 08:46:51;;;;;;;31.90;16.83;;;;;;;0.31;74.93;101969.06;5081457;28;20023;-88
2022/03/05 08:49:17;;;;;;;30.00;15.63;;;;;;;0.38;73.86;101974.78;5098416;28;20074;-87
2022/03/05 08:51:44;;;;;;;30.05;15.98;;;;;;;0.45;73.39;101973.34;5098187;28;20122;-87
2022/03/05 08:54:09;;;;;;;28.02;15.18;;;;;;;0.54;73.24;101982.44;5115239;28;20028;-87
2022/03/05 08:56:34;;;;;;;27.35;14.80;;;;;;;0.60;73.32;101974.78;5115305;28;20023;-88
2022/03/05 08:59:00;;;;;;;29.23;14.82;;;;;;;0.70;73.54;101974.91;5115503;28;20028;-86
2022/03/05 09:01:28;;;;;;;27.95;14.60;;;;;;;0.74;72.89;101968.34;5098297;28;20035;-87
2022/03/05 09:03:59;;;;;;;27.35;14.05;;;;;;;0.84;72.94;101966.63;5098639;28;20042;-87
2022/03/05 09:06:27;;;;;;;28.70;13.93;;;;;;;0.90;71.67;101970.63;5081311;28;20391;-87
2022/03/05 09:08:53;;;;;;;32.13;15.63;;;;;;;1.02;72.01;101979.47;5114904;28;20050;-88
2022/03/05 09:11:18;;;;;;;27.88;14.35;;;;;;;1.08;71.54;101981.63;5098159;28;20467;-87
2022/03/05 09:13:44;;;;;;;26.73;14.05;;;;;;;1.13;72.06;101984.78;5097653;28;20040;-86
2022/03/05 09:16:09;;;;;;;27.52;14.25;;;;;;;1.26;71.30;101981.09;5114700;28;20031;-87
2022/03/05 09:18:37;;;;;;;25.23;13.75;;;;;;;1.33;71.36;101977.78;5097788;28;20123;-87
2022/03/05 09:21:10;;;;;;;30.08;14.82;;;;;;;1.42;70.81;101976.19;5114756;28;20031;-87
2022/03/05 09:23:38;;;;;;;25.33;13.45;;;;;;;1.49;70.45;101974.69;5114678;28;20085;-87
2022/03/05 09:26:04;;;;;;;25.52;13.77;;;;;;;1.57;68.72;101961.50;5080682;28;20038;-87
2022/03/05 09:28:29;;;;;;;27.30;14.25;;;;;;;1.69;69.21;101975.69;5115563;28;20102;-87
2022/03/05 09:30:55;;;;;;;26.70;13.95;;;;;;;1.77;68.37;101964.31;5097446;28;20391;-87
2022/03/05 09:33:22;;;;;;;26.27;14.55;;;;;;;1.84;68.51;101968.19;5097533;28;20042;-87
2022/03/05 09:35:49;;;;;;;28.83;14.60;;;;;;;1.91;68.15;101955.13;5113528;28;20046;-87
2022/03/05 09:38:15;;;;;;;28.00;14.57;;;;;;;2.01;68.56;101958.72;5115458;28;20054;-87
2022/03/05 09:40:41;;;;;;;27.23;14.65;;;;;;;2.12;67.99;101962.31;5114843;28;20464;-87
2022/03/05 09:43:06;;;;;;;26.50;14.07;;;;;;;2.20;67.86;101955.31;5117371;28;20032;-87
2022/03/05 09:45:33;;;;;;;26.60;14.15;;;;;;;2.28;67.57;101950.09;5113500;28;20437;-86
2022/03/05 09:48:07;;;;;;;24.08;13.55;;;;;;;2.41;67.05;101963.28;5114405;28;20035;-86
2022/03/05 09:50:35;;;;;;;25.25;12.75;;;;;;;2.49;66.66;101962.59;5115611;28;20028;-87
2022/03/05 09:53:03;;;;;;;23.00;12.63;;;;;;;2.62;66.07;101957.03;5097123;28;20031;-87
2022/03/05 09:55:32;;;;;;;21.70;11.65;;;;;;;2.76;66.07;101963.81;5080418;28;20031;-86
2022/03/05 09:57:59;;;;;;;26.08;13.60;;;;;;;2.86;65.28;101956.66;5115140;28;20031;-87
2022/03/05 10:00:27;;;;;;;24.25;12.85;;;;;;;2.99;64.87;101962.63;5115163;28;20030;-86
2022/03/05 10:02:53;;;;;;;25.25;13.38;;;;;;;3.09;63.87;101957.28;5115409;28;20106;-86
2022/03/05 10:05:26;;;;;;;25.35;12.55;;;;;;;3.21;63.24;101960.69;5095831;28;20066;-86
2022/03/05 10:08:11;;;;;;;23.23;12.65;;;;;;;3.36;63.42;101963.78;5113868;28;20093;-86
2022/03/05 10:10:53;;;;;;;27.10;14.95;;;;;;;3.42;62.36;101963.22;5115432;28;20077;-86
2022/03/05 10:13:23;;;;;;;25.48;13.45;;;;;;;3.52;61.41;101955.19;5113459;28;20395;-85
2022/03/05 10:15:53;;;;;;;26.25;14.85;;;;;;;3.60;61.12;101958.03;5113201;28;20039;-86
2022/03/05 10:18:39;;;;;;;23.50;12.52;;;;;;;3.73;61.35;101949.66;5114832;28;20040;-86
2022/03/05 10:21:09;;;;;;;27.90;14.60;;;;;;;3.95;60.83;101953.00;5114881;28;20031;-86
2022/03/05 10:23:37;;;;;;;25.58;14.15;;;;;;;4.11;61.12;101945.19;5113574;28;20461;-86
2022/03/05 10:26:07;;;;;;;23.45;12.68;;;;;;;4.34;60.09;101952.88;5113136;28;20395;-85
2022/03/05 10:28:35;;;;;;;23.05;12.18;;;;;;;4.47;59.58;101942.66;5114896;28;20019;-85
2022/03/05 10:31:09;;;;;;;23.55;12.88;;;;;;;4.70;58.21;101943.09;5113574;28;20080;-85
2022/03/05 10:33:36;;;;;;;23.65;13.38;;;;;;;4.85;57.77;101946.13;5114701;28;20031;-85
2022/03/05 10:36:19;;;;;;;23.20;12.77;;;;;;;5.03;57.68;101942.63;5112594;28;20028;-85
2022/03/05 10:38:54;;;;;;;22.85;11.68;;;;;;;5.24;56.90;101943.19;5114257;28;20035;-85
2022/03/05 10:41:38;;;;;;;22.05;11.60;;;;;;;5.42;56.34;101937.81;5113062;28;20034;-85
2022/03/05 10:44:17;;;;;;;21.08;10.93;;;;;;;5.64;56.39;101951.78;5113283;28;20106;-85
2022/03/05 10:46:46;;;;;;;20.65;11.63;;;;;;;5.84;54.33;101946.22;5113006;28;20073;-86
2022/03/05 10:49:34;;;;;;;20.27;11.45;;;;;;;6.01;55.66;101937.28;5114397;28;20027;-85
2022/03/05 10:52:02;;;;;;;20.20;11.13;;;;;;;6.23;54.58;101943.97;5113166;28;20054;-85
2022/03/05 10:54:39;;;;;;;23.30;11.73;;;;;;;6.46;52.99;101949.63;5114592;28;20027;-85
2022/03/05 10:57:13;;;;;;;21.00;12.07;;;;;;;6.65;52.11;101940.47;5112808;28;20034;-85
2022/03/05 10:59:40;;;;;;;23.42;12.80;;;;;;;6.80;51.12;101946.06;5112712;28;20031;-85
2022/03/05 11:02:20;;;;;;;21.70;11.77;;;;;;;6.98;52.63;101945.13;5112850;28;20026;-85
2022/03/05 11:04:47;;;;;;;20.98;11.48;;;;;;;7.24;51.04;101946.88;5111916;28;20035;-85
2022/03/05 11:07:17;;;;;;;21.45;11.15;;;;;;;7.53;49.78;101949.09;5095969;28;20032;-86
2022/03/05 11:09:43;;;;;;;19.83;11.02;;;;;;;7.79;49.13;101935.38;5112561;28;20023;-85
2022/03/05 11:12:14;;;;;;;19.10;10.65;;;;;;;8.06;48.76;101941.44;5112870;28;20031;-85
2022/03/05 11:14:43;;;;;;;20.20;11.50;;;;;;;8.31;48.26;101935.97;5112358;28;20126;-85